Time;durP1;ratioP1;P1;durP2;ratioP2;P2;SDS_P1;SDS_P2;PMS_P1;PMS_P2;Temp;Humidity;BMP_temperature;BMP_pressure;BME280_temperature;BME280_humidity;BME280_pressure;Samples;Min_cycle;Max_cycle;Signal;HPM_P1;HPM_P2
2022/01/02 00:00:14;;;;;;;2.22;2.00;;;23.00;49.10;;;;;;5071289;28;44105;-72
2022/01/02 00:02:43;;;;;;;1.88;1.75;;;23.00;49.20;;;;;;5041045;28;44315;-70
2022/01/02 00:05:12;;;;;;;1.58;1.48;;;23.00;49.20;;;;;;5039387;28;43448;-72
2022/01/02 00:07:53;;;;;;;1.50;1.40;;;22.90;49.10;;;;;;5075385;27;43460;-71
2022/01/02 00:10:22;;;;;;;1.45;1.35;;;22.90;49.10;;;;;;5040600;28;43519;-69
2022/01/02 00:12:55;;;;;;;1.77;1.67;;;23.00;49.20;;;;;;5074975;27;43935;-68
2022/01/02 00:15:24;;;;;;;1.92;1.70;;;22.90;49.10;;;;;;5038927;28;43521;-69
2022/01/02 00:17:56;;;;;;;1.88;1.70;;;22.90;49.20;;;;;;5074873;28;43495;-70
2022/01/02 00:20:32;;;;;;;1.70;1.60;;;22.90;49.10;;;;;;5074100;27;43608;-72
2022/01/02 00:23:04;;;;;;;1.70;1.60;;;22.90;49.20;;;;;;5074610;27;44297;-70
2022/01/02 00:25:38;;;;;;;2.03;1.80;;;22.90;49.20;;;;;;5040815;28;44403;-71
2022/01/02 00:28:11;;;;;;;1.70;1.60;;;22.90;49.20;;;;;;5040644;28;43863;-70
2022/01/02 00:30:43;;;;;;;1.60;1.50;;;22.90;49.20;;;;;;5023348;28;43483;-71
2022/01/02 00:33:11;;;;;;;2.00;1.90;;;22.80;49.20;;;;;;5074054;27;44044;-72
2022/01/02 00:35:39;;;;;;;2.28;1.80;;;22.90;49.30;;;;;;5024208;28;43408;-69
2022/01/02 00:38:20;;;;;;;1.70;1.50;;;22.80;49.20;;;;;;5091126;27;43534;-69
2022/01/02 00:40:52;;;;;;;;;;;22.80;49.10;;;;;;5041611;28;43442;-71
2022/01/02 00:43:50;;;;;;;2.58;1.67;;;22.80;49.20;;;;;;5038598;28;44153;-72
2022/01/02 00:46:21;;;;;;;2.30;1.70;;;22.80;49.20;;;;;;5015997;28;43562;-72
2022/01/02 00:48:53;;;;;;;1.50;1.40;;;22.80;49.30;;;;;;5022652;28;43493;-72
2022/01/02 00:51:34;;;;;;;1.65;1.55;;;22.80;49.20;;;;;;5023488;28;43472;-68
2022/01/02 00:54:02;;;;;;;2.28;1.85;;;22.80;49.20;;;;;;5040902;28;45717;-68
2022/01/02 00:56:34;;;;;;;1.98;1.83;;;22.80;49.20;;;;;;5055827;28;43523;-69
2022/01/02 00:59:08;;;;;;;1.80;1.70;;;22.80;49.20;;;;;;5038845;28;43498;-70
2022/01/02 01:01:36;;;;;;;1.55;1.45;;;22.80;49.20;;;;;;5073451;27;43552;-68
2022/01/02 01:04:06;;;;;;;2.65;1.77;;;22.80;49.20;;;;;;5037637;28;43583;-71
2022/01/02 01:06:39;;;;;;;1.60;1.50;;;22.80;49.20;;;;;;5076952;27;44418;-71
2022/01/02 01:09:06;;;;;;;1.65;1.55;;;22.70;49.20;;;;;;5046359;28;43519;-68
2022/01/02 01:11:34;;;;;;;1.63;1.52;;;22.70;49.20;;;;;;5043470;28;43587;-69
2022/01/02 01:14:01;;;;;;;1.70;1.60;;;22.70;49.20;;;;;;5061461;28;43936;-72
2022/01/02 01:16:29;;;;;;;2.33;1.95;;;22.70;49.20;;;;;;5060676;28;44909;-69
2022/01/02 01:18:58;;;;;;;1.60;1.50;;;22.70;49.20;;;;;;5025868;28;43512;-71
2022/01/02 01:21:26;;;;;;;2.05;1.80;;;22.70;49.20;;;;;;5059515;28;43681;-72
2022/01/02 01:23:53;;;;;;;1.98;1.65;;;22.70;49.20;;;;;;5059811;28;45725;-70
2022/01/02 01:26:22;;;;;;;1.90;1.50;;;22.70;49.20;;;;;;5060391;28;44747;-71
2022/01/02 01:28:50;;;;;;;2.00;1.60;;;22.70;49.30;;;;;;5043642;28;43540;-73
2022/01/02 01:31:18;;;;;;;1.83;1.73;;;22.70;49.20;;;;;;5042483;28;43646;-70
2022/01/02 01:33:45;;;;;;;1.80;1.45;;;22.70;49.20;;;;;;5059928;28;45880;-71
2022/01/02 01:36:12;;;;;;;2.03;1.85;;;22.70;49.30;;;;;;5045346;28;43603;-71
2022/01/02 01:38:40;;;;;;;1.95;1.63;;;22.70;49.30;;;;;;5060500;28;43484;-69
2022/01/02 01:41:21;;;;;;;1.92;1.60;;;22.60;49.20;;;;;;5042731;28;43606;-70
2022/01/02 01:46:41;;;;;;;;;;;22.60;49.20;;;;;;5017816;28;43492;-73
2022/01/02 01:49:21;;;;;;;2.03;1.80;;;22.60;49.30;;;;;;5058926;28;43540;-72
2022/01/02 01:51:48;;;;;;;2.10;1.90;;;22.60;49.30;;;;;;5059273;28;43599;-69
2022/01/02 01:54:20;;;;;;;2.00;1.80;;;22.60;49.30;;;;;;5059812;28;44185;-71
2022/01/02 01:56:51;;;;;;;1.90;1.80;;;22.60;49.30;;;;;;5077632;27;44996;-70
2022/01/02 01:59:22;;;;;;;2.75;1.92;;;22.60;49.40;;;;;;5012017;28;44061;-69
2022/01/02 02:01:52;;;;;;;2.72;2.08;;;22.50;49.30;;;;;;5025384;28;43627;-70
2022/01/02 02:04:20;;;;;;;1.65;1.55;;;22.60;49.30;;;;;;5061845;28;45588;-72
2022/01/02 02:06:47;;;;;;;2.75;2.00;;;22.50;49.20;;;;;;5075670;28;44446;-69
2022/01/02 02:09:18;;;;;;;3.15;1.92;;;22.50;49.30;;;;;;5059718;28;43454;-69
2022/01/02 02:11:46;;;;;;;2.50;1.70;;;22.50;49.30;;;;;;5075616;28;43545;-69
2022/01/02 02:14:14;;;;;;;2.20;1.75;;;22.50;49.30;;;;;;5059377;28;44944;-70
2022/01/02 02:16:41;;;;;;;1.85;1.55;;;22.50;49.30;;;;;;5025352;28;44353;-71
2022/01/02 02:19:12;;;;;;;2.35;1.92;;;22.50;49.30;;;;;;5025049;28;43629;-69
2022/01/02 02:21:40;;;;;;;2.00;1.80;;;22.50;49.30;;;;;;5024680;28;43642;-70
2022/01/02 02:24:08;;;;;;;1.92;1.77;;;22.50;49.30;;;;;;5025468;28;45296;-69
2022/01/02 02:26:38;;;;;;;1.88;1.77;;;22.50;49.30;;;;;;5057050;28;43482;-71
2022/01/02 02:29:06;;;;;;;1.60;1.50;;;22.50;49.30;;;;;;5043000;28;43444;-68
2022/01/02 02:31:34;;;;;;;2.33;1.60;;;22.50;49.30;;;;;;5024458;28;43577;-71
2022/01/02 02:34:03;;;;;;;2.00;1.73;;;22.50;49.30;;;;;;5077735;27;45592;-72
2022/01/02 02:36:30;;;;;;;2.00;1.90;;;22.50;49.30;;;;;;5075669;27;44054;-71
2022/01/02 02:38:58;;;;;;;1.80;1.70;;;22.50;49.30;;;;;;5025254;28;43495;-69
2022/01/02 02:41:31;;;;;;;1.90;1.80;;;22.50;49.30;;;;;;5058565;28;43557;-70
2022/01/02 02:44:16;;;;;;;2.10;1.63;;;22.40;49.30;;;;;;5057967;28;45612;-70
2022/01/02 02:49:29;;;;;;;3.22;2.00;;;22.40;49.30;;;;;;5025885;28;43567;-69
2022/01/02 02:52:16;;;;;;;2.50;1.88;;;22.40;49.30;;;;;;5024629;28;43641;-71
2022/01/02 02:54:43;;;;;;;2.53;2.17;;;22.40;49.30;;;;;;5024797;28;45800;-70
2022/01/02 02:57:13;;;;;;;1.95;1.77;;;22.40;49.40;;;;;;5024648;28;43714;-71
2022/01/02 02:59:41;;;;;;;2.53;1.98;;;22.40;49.40;;;;;;5087379;27;43489;-70
2022/01/02 03:02:09;;;;;;;2.08;1.60;;;22.40;49.40;;;;;;5071692;28;43617;-68
2022/01/02 03:04:41;;;;;;;2.00;1.83;;;22.30;49.40;;;;;;5026652;28;44270;-69
2022/01/02 03:07:09;;;;;;;2.78;1.80;;;22.40;49.40;;;;;;5056629;28;43452;-70
2022/01/02 03:09:42;;;;;;;2.08;1.80;;;22.40;49.40;;;;;;5026395;28;43443;-68
2022/01/02 03:12:11;;;;;;;3.28;2.30;;;22.30;49.40;;;;;;5023904;28;43606;-70
2022/01/02 03:14:43;;;;;;;1.88;1.77;;;22.30;49.30;;;;;;5056386;28;44219;-69
2022/01/02 03:17:11;;;;;;;1.60;1.50;;;22.40;49.40;;;;;;5023997;28;44184;-69
2022/01/02 03:19:39;;;;;;;2.38;2.08;;;22.30;49.40;;;;;;5024901;28;43552;-69
2022/01/02 03:22:08;;;;;;;1.92;1.77;;;22.30;49.30;;;;;;5042388;28;43594;-69
2022/01/02 03:24:35;;;;;;;1.98;1.83;;;22.30;49.40;;;;;;5058884;28;44046;-70
2022/01/02 03:27:03;;;;;;;2.17;1.80;;;22.30;49.40;;;;;;5058553;28;45188;-67
2022/01/02 03:29:31;;;;;;;2.78;1.88;;;22.30;49.40;;;;;;5059418;28;43513;-69
2022/01/02 03:31:59;;;;;;;2.15;1.80;;;22.30;49.40;;;;;;5059161;28;43606;-69
2022/01/02 03:34:27;;;;;;;2.20;2.00;;;22.30;49.50;;;;;;5027725;28;45436;-69
2022/01/02 03:36:56;;;;;;;1.90;1.80;;;22.30;49.40;;;;;;5057617;28;44105;-69
2022/01/02 03:39:23;;;;;;;1.92;1.70;;;22.30;49.40;;;;;;5057199;28;43500;-69
2022/01/02 03:41:52;;;;;;;1.88;1.67;;;22.30;49.50;;;;;;5041976;28;43526;-70
2022/01/02 03:44:20;;;;;;;2.08;1.88;;;22.30;49.50;;;;;;5025358;28;45759;-67
2022/01/02 03:46:47;;;;;;;2.50;1.90;;;22.30;49.50;;;;;;5058100;28;44083;-70
2022/01/02 03:49:15;;;;;;;1.65;1.55;;;22.30;49.50;;;;;;5059004;28;43477;-68
2022/01/02 03:51:42;;;;;;;1.92;1.73;;;22.30;49.50;;;;;;5074903;27;43656;-67
2022/01/02 03:54:10;;;;;;;1.70;1.60;;;22.20;50.10;;;;;;5041283;28;44197;-70
2022/01/02 03:56:37;;;;;;;1.80;1.70;;;22.20;49.60;;;;;;5023713;28;44710;-69
2022/01/02 03:59:05;;;;;;;2.53;1.80;;;22.20;49.60;;;;;;5041544;28;43442;-67
2022/01/02 04:01:33;;;;;;;1.50;1.40;;;22.20;49.50;;;;;;5014133;28;43514;-70
2022/01/02 04:04:01;;;;;;;2.50;1.75;;;22.20;49.60;;;;;;5074847;28;44059;-68
2022/01/02 04:06:29;;;;;;;2.55;1.95;;;22.20;49.60;;;;;;5057570;28;44425;-69
2022/01/02 04:08:56;;;;;;;2.00;1.65;;;22.20;49.60;;;;;;5024056;28;43503;-70
2022/01/02 04:11:24;;;;;;;2.17;1.65;;;22.20;49.50;;;;;;5024219;28;43872;-68
2022/01/02 04:13:51;;;;;;;2.03;1.50;;;22.20;49.60;;;;;;5042215;28;44137;-70
2022/01/02 04:16:19;;;;;;;2.00;1.80;;;22.20;49.60;;;;;;5073911;27;44919;-69
2022/01/02 04:18:46;;;;;;;2.17;1.80;;;22.20;49.60;;;;;;5076690;27;43532;-68
2022/01/02 04:21:14;;;;;;;1.90;1.63;;;22.20;49.60;;;;;;5074795;28;43564;-68
2022/01/02 04:23:42;;;;;;;1.58;1.48;;;22.20;49.70;;;;;;5056523;28;45733;-69
2022/01/02 04:26:09;;;;;;;1.95;1.80;;;22.20;49.70;;;;;;5074649;28;43486;-68
2022/01/02 04:28:37;;;;;;;2.00;1.80;;;22.10;49.60;;;;;;5040715;28;43598;-68
2022/01/02 04:31:05;;;;;;;1.60;1.50;;;22.10;49.60;;;;;;5024561;28;43547;-69
2022/01/02 04:33:32;;;;;;;1.67;1.58;;;22.10;49.60;;;;;;5058687;28;45429;-68
2022/01/02 04:36:00;;;;;;;1.98;1.80;;;22.10;49.70;;;;;;5059132;28;43538;-68
2022/01/02 04:38:28;;;;;;;1.90;1.70;;;22.10;49.70;;;;;;5024579;28;43477;-68
2022/01/02 04:40:57;;;;;;;1.77;1.67;;;22.10;49.70;;;;;;5056069;28;43577;-68
2022/01/02 04:43:25;;;;;;;1.95;1.73;;;22.10;49.70;;;;;;5024402;28;46149;-68
2022/01/02 04:45:52;;;;;;;1.60;1.50;;;22.10;49.80;;;;;;5023263;28;44507;-68
2022/01/02 04:48:20;;;;;;;2.13;1.88;;;22.10;49.80;;;;;;5024446;28;43528;-69
2022/01/02 04:50:48;;;;;;;1.85;1.75;;;22.10;49.70;;;;;;5024007;28;43562;-69
2022/01/02 04:53:16;;;;;;;1.70;1.60;;;22.10;49.80;;;;;;5023524;28;45232;-69
2022/01/02 04:55:44;;;;;;;1.90;1.65;;;22.10;50.40;;;;;;5056999;28;44722;-69
2022/01/02 04:58:12;;;;;;;2.03;1.65;;;22.10;49.80;;;;;;5026855;28;43481;-68
2022/01/02 05:00:39;;;;;;;1.98;1.70;;;22.00;49.80;;;;;;5051065;28;43503;-70
2022/01/02 05:03:09;;;;;;;1.90;1.80;;;22.00;49.80;;;;;;5065074;28;44205;-70
2022/01/02 05:05:37;;;;;;;1.80;1.70;;;22.00;49.80;;;;;;5073620;27;43482;-69
2022/01/02 05:08:04;;;;;;;1.80;1.70;;;22.00;49.80;;;;;;5041212;28;44166;-70
2022/01/02 05:10:32;;;;;;;2.10;1.73;;;22.00;49.80;;;;;;5073130;27;43534;-69
2022/01/02 05:12:59;;;;;;;1.65;1.55;;;22.00;49.80;;;;;;5060826;28;44386;-69
2022/01/02 05:15:27;;;;;;;1.65;1.55;;;22.00;49.80;;;;;;5090555;27;43645;-69
2022/01/02 05:17:55;;;;;;;1.63;1.52;;;22.00;49.80;;;;;;5023678;28;43499;-69
2022/01/02 05:20:22;;;;;;;1.90;1.80;;;22.00;49.80;;;;;;5056456;28;43538;-69
2022/01/02 05:22:50;;;;;;;1.85;1.73;;;22.00;49.90;;;;;;5022424;28;43850;-70
2022/01/02 05:25:17;;;;;;;2.45;1.52;;;22.00;49.80;;;;;;5073357;27;45218;-70
2022/01/02 05:27:45;;;;;;;1.95;1.85;;;22.00;49.80;;;;;;5025054;28;43502;-70
2022/01/02 05:30:12;;;;;;;1.60;1.50;;;22.00;49.90;;;;;;5074009;28;43657;-69
2022/01/02 05:32:40;;;;;;;1.95;1.80;;;22.00;49.90;;;;;;5056529;28;45830;-68
2022/01/02 05:35:07;;;;;;;1.73;1.63;;;21.90;49.90;;;;;;5040068;28;45006;-68
2022/01/02 05:37:35;;;;;;;2.03;1.80;;;21.90;49.90;;;;;;5056684;28;43468;-68
2022/01/02 05:40:03;;;;;;;1.70;1.60;;;21.90;50.10;;;;;;5056915;28;43498;-68
2022/01/02 05:42:31;;;;;;;2.00;1.63;;;21.90;50.10;;;;;;5021490;28;45248;-69
2022/01/02 05:44:58;;;;;;;2.38;1.80;;;21.90;50.10;;;;;;5022868;28;43560;-70
2022/01/02 05:47:27;;;;;;;1.58;1.48;;;21.90;50.10;;;;;;5056653;28;43499;-71
2022/01/02 05:49:55;;;;;;;2.08;1.40;;;21.90;50.00;;;;;;5057437;28;43625;-67
2022/01/02 05:52:22;;;;;;;1.70;1.60;;;21.90;50.00;;;;;;5057020;28;46213;-69
2022/01/02 05:54:50;;;;;;;1.60;1.50;;;21.90;50.00;;;;;;5026079;28;44330;-68
2022/01/02 05:57:18;;;;;;;2.00;1.75;;;21.90;50.00;;;;;;5043692;28;43469;-68
2022/01/02 05:59:45;;;;;;;2.45;1.60;;;21.90;50.00;;;;;;5059659;28;43510;-68
2022/01/02 06:02:13;;;;;;;1.85;1.60;;;21.90;50.00;;;;;;5052768;28;45430;-69
2022/01/02 06:04:41;;;;;;;1.83;1.70;;;21.90;50.00;;;;;;5038096;28;43561;-68
2022/01/02 06:07:09;;;;;;;1.75;1.65;;;21.90;50.00;;;;;;5024428;28;43554;-69
2022/01/02 06:09:36;;;;;;;1.70;1.60;;;21.90;50.00;;;;;;5024530;28;43603;-69
2022/01/02 06:12:05;;;;;;;1.70;1.60;;;21.90;50.00;;;;;;5059733;28;47118;-70
2022/01/02 06:14:33;;;;;;;1.73;1.58;;;21.90;50.00;;;;;;5060243;28;44360;-69
2022/01/02 06:17:01;;;;;;;2.15;1.70;;;21.90;50.00;;;;;;5041606;28;43550;-67
2022/01/02 06:19:29;;;;;;;2.40;1.63;;;21.90;50.50;;;;;;5025935;28;43542;-69
2022/01/02 06:21:58;;;;;;;1.80;1.70;;;21.90;50.10;;;;;;5041069;28;44026;-69
2022/01/02 06:24:25;;;;;;;1.60;1.50;;;21.90;50.10;;;;;;5093227;27;43580;-68
2022/01/02 06:26:53;;;;;;;1.67;1.58;;;21.90;50.10;;;;;;5075871;28;43580;-66
2022/01/02 06:29:20;;;;;;;2.13;1.73;;;21.80;50.10;;;;;;5058932;28;43683;-67
2022/01/02 06:31:48;;;;;;;2.05;1.75;;;21.80;50.10;;;;;;5056116;28;44003;-68
2022/01/02 06:34:15;;;;;;;1.75;1.65;;;21.80;50.20;;;;;;5075312;27;44769;-66
2022/01/02 06:36:43;;;;;;;2.28;1.90;;;21.80;50.10;;;;;;5056836;28;43547;-68
2022/01/02 06:39:10;;;;;;;1.67;1.58;;;21.90;50.40;;;;;;5042347;28;43674;-66
2022/01/02 06:41:38;;;;;;;1.95;1.70;;;21.90;50.30;;;;;;5056976;28;46084;-68
2022/01/02 06:44:05;;;;;;;1.98;1.70;;;21.90;50.30;;;;;;5057935;28;43487;-67
2022/01/02 06:46:33;;;;;;;1.90;1.70;;;21.90;50.20;;;;;;5058066;28;43582;-69
2022/01/02 06:49:01;;;;;;;1.80;1.55;;;21.90;50.30;;;;;;5042222;28;43510;-69
2022/01/02 06:51:48;;;;;;;1.85;1.75;;;21.90;50.20;;;;;;5088046;27;43932;-67
2022/01/02 06:54:15;;;;;;;2.13;1.60;;;21.90;50.30;;;;;;5041750;28;44755;-69
2022/01/02 06:56:43;;;;;;;1.70;1.60;;;21.90;50.30;;;;;;5074993;27;43464;-70
2022/01/02 06:59:10;;;;;;;2.03;1.63;;;21.90;50.80;;;;;;5058202;28;43495;-67
2022/01/02 07:01:38;;;;;;;1.58;1.42;;;21.90;50.30;;;;;;5057619;28;44475;-69
2022/01/02 07:04:05;;;;;;;2.25;1.70;;;21.90;50.30;;;;;;5016924;28;43772;-68
2022/01/02 07:06:33;;;;;;;1.60;1.50;;;21.90;50.30;;;;;;5041226;28;43500;-68
2022/01/02 07:09:01;;;;;;;2.15;1.80;;;21.90;50.30;;;;;;5041452;28;43636;-70
2022/01/02 07:11:29;;;;;;;1.90;1.70;;;21.90;50.30;;;;;;5041253;28;44151;-69
2022/01/02 07:13:57;;;;;;;2.13;1.75;;;21.90;50.30;;;;;;5042438;28;43537;-69
2022/01/02 07:16:24;;;;;;;1.98;1.77;;;21.90;50.30;;;;;;5041560;28;43503;-71
2022/01/02 07:18:53;;;;;;;1.77;1.63;;;21.80;50.30;;;;;;5041811;28;43443;-70
2022/01/02 07:21:21;;;;;;;2.20;1.90;;;21.90;50.40;;;;;;5074580;27;43942;-67
2022/01/02 07:23:48;;;;;;;3.15;1.80;;;21.90;50.40;;;;;;5075283;27;43570;-68
2022/01/02 07:26:16;;;;;;;1.88;1.67;;;21.80;50.40;;;;;;5074729;27;43400;-69
2022/01/02 07:28:44;;;;;;;2.10;1.65;;;21.90;50.50;;;;;;5074232;28;43640;-68
2022/01/02 07:31:12;;;;;;;2.85;1.60;;;21.90;50.20;;;;;;5072657;28;45625;-70
2022/01/02 07:33:39;;;;;;;2.55;1.50;;;21.90;50.40;;;;;;5075424;27;43528;-69
2022/01/02 07:36:07;;;;;;;2.72;2.00;;;21.80;50.30;;;;;;5075179;27;43522;-70
2022/01/02 07:38:34;;;;;;;1.77;1.58;;;21.80;50.40;;;;;;5041616;28;43993;-68
2022/01/02 07:41:02;;;;;;;1.85;1.67;;;21.80;50.40;;;;;;5074947;27;44181;-68
2022/01/02 07:43:29;;;;;;;2.35;1.75;;;21.80;51.00;;;;;;5040848;28;44727;-68
2022/01/02 07:45:57;;;;;;;2.17;1.60;;;21.80;50.40;;;;;;5075257;28;43522;-69
2022/01/02 07:48:24;;;;;;;2.15;1.48;;;21.80;50.40;;;;;;5041469;28;43690;-69
2022/01/02 07:50:52;;;;;;;1.85;1.52;;;21.80;50.40;;;;;;5074418;28;45902;-68
2022/01/02 07:53:19;;;;;;;2.85;1.75;;;21.80;50.40;;;;;;5074581;28;44292;-70
2022/01/02 07:55:48;;;;;;;2.00;1.80;;;21.80;50.40;;;;;;5039680;28;43547;-70
2022/01/02 07:58:15;;;;;;;2.40;1.80;;;21.80;50.40;;;;;;5074416;27;43526;-68
2022/01/02 08:00:43;;;;;;;2.67;1.60;;;21.80;50.40;;;;;;5041105;28;46024;-68
2022/01/02 08:03:11;;;;;;;1.83;1.55;;;21.80;50.40;;;;;;5056777;28;44403;-70
2022/01/02 08:05:39;;;;;;;1.73;1.63;;;21.80;50.40;;;;;;5069428;28;43467;-69
2022/01/02 08:08:08;;;;;;;2.40;1.60;;;21.80;50.40;;;;;;5074494;28;43521;-70
2022/01/02 08:10:38;;;;;;;2.38;1.70;;;21.80;50.40;;;;;;5057598;28;45183;-70
2022/01/02 08:13:06;;;;;;;2.10;1.60;;;21.80;50.40;;;;;;5072451;27;43716;-67
2022/01/02 08:15:33;;;;;;;2.50;1.55;;;21.80;50.40;;;;;;5040104;28;43483;-69
2022/01/02 08:18:01;;;;;;;2.05;1.60;;;21.80;50.40;;;;;;5073654;27;43664;-67
2022/01/02 08:20:28;;;;;;;2.60;1.88;;;21.80;50.40;;;;;;5040293;28;44141;-68
2022/01/02 08:22:56;;;;;;;2.38;1.77;;;21.80;50.40;;;;;;5073565;28;44384;-68
2022/01/02 08:25:24;;;;;;;3.05;1.80;;;21.80;50.50;;;;;;5075067;28;43586;-69
2022/01/02 08:27:51;;;;;;;1.77;1.42;;;21.80;50.40;;;;;;5040206;28;43731;-69
2022/01/02 08:30:19;;;;;;;3.38;1.83;;;21.80;50.50;;;;;;5071754;28;45715;-68
2022/01/02 08:32:46;;;;;;;2.63;1.80;;;21.80;50.40;;;;;;5074421;28;43531;-68
2022/01/02 08:35:14;;;;;;;2.97;1.60;;;21.80;50.50;;;;;;5074510;28;43499;-67
2022/01/02 08:37:42;;;;;;;3.55;1.70;;;21.80;50.60;;;;;;5072800;28;43561;-67
2022/01/02 08:40:09;;;;;;;3.03;1.77;;;21.70;50.60;;;;;;5040516;28;45557;-69
2022/01/02 08:42:38;;;;;;;3.20;1.90;;;21.80;50.60;;;;;;5039058;28;43675;-69
2022/01/02 08:45:07;;;;;;;3.90;1.90;;;21.70;50.60;;;;;;5074175;28;43538;-67
2022/01/02 08:47:36;;;;;;;4.03;1.50;;;21.70;50.60;;;;;;5070719;27;43587;-71
2022/01/02 08:50:05;;;;;;;2.42;1.70;;;21.70;50.60;;;;;;5073607;28;45895;-70
2022/01/02 08:52:33;;;;;;;2.58;1.67;;;21.70;50.60;;;;;;5036702;28;43574;-69
2022/01/02 08:55:00;;;;;;;3.47;1.77;;;21.70;50.60;;;;;;5074100;28;43433;-68
2022/01/02 08:57:28;;;;;;;2.65;1.50;;;21.70;50.70;;;;;;5073993;27;43511;-67
2022/01/02 08:59:55;;;;;;;4.03;1.50;;;21.70;50.80;;;;;;5040715;28;45696;-68
2022/01/02 09:02:22;;;;;;;2.25;1.55;;;21.70;50.90;;;;;;5073218;28;43418;-69
2022/01/02 09:04:50;;;;;;;2.25;1.90;;;21.70;50.90;;;;;;5034353;28;43556;-70
2022/01/02 09:07:18;;;;;;;2.00;1.58;;;21.70;51.10;;;;;;5015525;28;44200;-69
2022/01/02 09:09:45;;;;;;;3.00;1.77;;;21.70;51.00;;;;;;5073662;28;43936;-67
2022/01/02 09:12:14;;;;;;;4.22;2.22;;;21.70;50.90;;;;;;5072422;28;43514;-68
2022/01/02 09:14:42;;;;;;;2.25;1.85;;;21.70;50.80;;;;;;5074898;27;43563;-69
2022/01/02 09:17:10;;;;;;;3.13;2.10;;;21.70;50.90;;;;;;5074033;27;43590;-68
2022/01/02 09:19:38;;;;;;;2.97;1.70;;;21.70;50.90;;;;;;5073428;28;45242;-69
2022/01/02 09:22:05;;;;;;;3.40;1.92;;;21.70;50.80;;;;;;5039404;28;44495;-70
2022/01/02 09:24:33;;;;;;;2.72;1.80;;;21.70;50.80;;;;;;5040172;28;43542;-70
2022/01/02 09:27:00;;;;;;;1.98;1.40;;;21.70;50.70;;;;;;5040344;28;43506;-71
2022/01/02 09:29:28;;;;;;;2.13;1.52;;;21.70;50.70;;;;;;5077253;27;45335;-71
2022/01/02 09:31:56;;;;;;;2.42;1.48;;;21.70;50.70;;;;;;5060116;28;43800;-70
2022/01/02 09:34:24;;;;;;;2.70;1.75;;;21.70;50.70;;;;;;5077358;27;43486;-70
2022/01/02 09:36:51;;;;;;;2.58;1.60;;;21.60;50.60;;;;;;5043481;28;44037;-69
2022/01/02 09:39:19;;;;;;;3.40;1.70;;;21.70;50.70;;;;;;5076734;28;46902;-70
2022/01/02 09:41:46;;;;;;;2.05;1.50;;;21.70;50.70;;;;;;5076456;28;44428;-68
2022/01/02 09:44:14;;;;;;;3.35;1.60;;;21.70;50.70;;;;;;5043477;28;43573;-68
2022/01/02 09:46:42;;;;;;;2.17;1.73;;;21.70;50.70;;;;;;5076042;27;43528;-70
2022/01/02 09:49:10;;;;;;;2.03;1.58;;;21.70;50.80;;;;;;5042915;28;46203;-68
2022/01/02 09:51:37;;;;;;;1.92;1.63;;;21.70;50.70;;;;;;5076933;28;43474;-72
2022/01/02 09:54:05;;;;;;;2.55;1.48;;;21.60;50.70;;;;;;5043633;28;43487;-70
2022/01/02 09:56:32;;;;;;;5.75;1.90;;;21.60;50.80;;;;;;5059536;28;43514;-69
2022/01/02 09:59:02;;;;;;;2.90;1.50;;;21.60;51.10;;;;;;5044561;28;44198;-69
2022/01/02 10:01:32;;;;;;;4.20;1.90;;;21.60;50.90;;;;;;5041765;28;43714;-70
2022/01/02 10:04:00;;;;;;;3.88;1.63;;;21.60;51.00;;;;;;5077042;28;43525;-70
2022/01/02 10:06:47;;;;;;;1.92;1.58;;;21.60;51.00;;;;;;5036418;28;43579;-69
2022/01/02 10:09:36;;;;;;;2.65;1.60;;;21.60;51.00;;;;;;5074316;28;43994;-67
2022/01/02 10:12:27;;;;;;;2.00;1.65;;;21.70;51.00;;;;;;5041593;28;43694;-67
2022/01/02 10:15:13;;;;;;;3.38;1.55;;;21.60;51.10;;;;;;5043017;28;43564;-70
2022/01/02 10:17:52;;;;;;;2.50;1.60;;;21.60;51.10;;;;;;5043153;28;43525;-69
2022/01/02 10:20:27;;;;;;;2.35;1.70;;;21.60;51.10;;;;;;5076455;27;45539;-69
2022/01/02 10:23:04;;;;;;;1.73;1.63;;;21.60;51.30;;;;;;5076371;28;43434;-69
2022/01/02 10:25:56;;;;;;;2.80;1.60;;;21.60;51.10;;;;;;5076304;28;43499;-71
2022/01/02 10:28:26;;;;;;;3.13;1.85;;;21.60;51.80;;;;;;5043081;28;43515;-70
2022/01/02 10:31:03;;;;;;;2.92;1.80;;;21.60;51.30;;;;;;5077630;28;43908;-70
2022/01/02 10:33:53;;;;;;;1.60;1.50;;;21.60;51.20;;;;;;5073609;27;44608;-64
2022/01/02 10:36:42;;;;;;;1.70;1.60;;;21.60;51.10;;;;;;5041515;28;43964;-68
2022/01/02 10:39:14;;;;;;;2.55;1.80;;;21.60;51.20;;;;;;5078717;27;44086;-68
2022/01/02 10:41:45;;;;;;;1.98;1.65;;;21.60;51.00;;;;;;5058522;28;46113;-69
2022/01/02 10:44:17;;;;;;;;;;;21.60;51.00;;;;;;5043200;28;43480;-69
2022/01/02 10:47:21;;;;;;;1.70;1.60;;;21.60;51.20;;;;;;5060536;27;43587;-67
2022/01/02 10:50:08;;;;;;;2.22;1.70;;;21.60;51.20;;;;;;5076693;27;43732;-70
2022/01/02 10:52:41;;;;;;;2.35;1.80;;;21.60;51.20;;;;;;5058937;28;46261;-68
2022/01/02 10:55:17;;;;;;;2.63;2.00;;;21.60;51.20;;;;;;5075960;27;44379;-68
2022/01/02 10:57:49;;;;;;;2.38;1.90;;;21.50;51.10;;;;;;5075791;28;43546;-69
2022/01/02 11:00:22;;;;;;;3.40;2.00;;;21.60;51.20;;;;;;5042374;28;43605;-67
2022/01/02 11:02:49;;;;;;;1.90;1.70;;;21.50;51.20;;;;;;5075712;27;43950;-69
2022/01/02 11:05:23;;;;;;;2.58;1.83;;;21.50;51.30;;;;;;5041437;28;43439;-69
2022/01/02 11:07:55;;;;;;;2.85;2.20;;;21.50;51.30;;;;;;5068701;27;43454;-68
2022/01/02 11:10:24;;;;;;;5.28;2.10;;;21.50;51.30;;;;;;5040415;28;43496;-69
2022/01/02 11:12:53;;;;;;;2.90;2.03;;;21.50;51.30;;;;;;5076052;27;45819;-71
2022/01/02 11:15:23;;;;;;;2.28;1.92;;;21.50;51.30;;;;;;5042003;28;44550;-70
2022/01/02 11:17:53;;;;;;;7.45;2.25;;;21.50;51.30;;;;;;5076012;27;43574;-69
2022/01/02 11:20:29;;;;;;;4.40;2.20;;;21.50;51.40;;;;;;5041820;28;43520;-71
2022/01/02 11:23:15;;;;;;;4.55;2.30;;;21.50;51.30;;;;;;5074760;28;44663;-70
2022/01/02 11:26:16;;;;;;;4.47;2.42;;;21.50;51.30;;;;;;5041410;28;44650;-71
2022/01/02 11:29:04;;;;;;;5.00;2.40;;;21.40;51.20;;;;;;5059266;28;43453;-68
2022/01/02 11:31:35;;;;;;;3.53;2.60;;;21.40;51.20;;;;;;5075125;28;43579;-69
2022/01/02 11:34:20;;;;;;;;;;;21.50;51.30;;;;;;5075528;28;45678;-71
2022/01/02 11:36:47;;;;;;;4.18;2.80;;;21.40;51.30;;;;;;5074845;28;44128;-71
2022/01/02 11:39:15;;;;;;;2.97;2.40;;;21.50;51.40;;;;;;5075276;27;43542;-69
2022/01/02 11:41:51;;;;;;;4.40;2.55;;;21.50;51.20;;;;;;5075652;28;43453;-69
2022/01/02 11:44:20;;;;;;;4.28;2.53;;;21.50;51.00;;;;;;5070434;28;45674;-71
2022/01/02 11:46:53;;;;;;;3.47;2.35;;;21.50;50.90;;;;;;5041276;28;43595;-68
2022/01/02 11:49:24;;;;;;;3.15;2.22;;;21.50;50.90;;;;;;5041812;28;43478;-69
2022/01/02 11:51:54;;;;;;;3.75;2.22;;;21.50;50.90;;;;;;5039865;28;43517;-71
2022/01/02 11:54:33;;;;;;;4.88;2.60;;;21.50;50.80;;;;;;5076588;27;45430;-68
2022/01/02 11:57:25;;;;;;;3.70;2.47;;;21.60;50.80;;;;;;5040960;28;45224;-69
2022/01/02 11:59:56;;;;;;;4.07;2.58;;;21.60;51.00;;;;;;5040902;28;43566;-70
2022/01/02 12:02:26;;;;;;;5.72;2.50;;;21.60;50.80;;;;;;5040459;28;43563;-67
2022/01/02 12:07:37;;;;;;;5.95;2.53;;;21.60;50.80;;;;;;5071839;28;43830;-67
2022/01/02 12:10:17;;;;;;;4.65;2.78;;;21.60;50.90;;;;;;5032470;28;43490;-68
2022/01/02 12:12:57;;;;;;;4.07;2.58;;;21.60;50.80;;;;;;5073978;28;43974;-67
2022/01/02 12:15:33;;;;;;;5.53;2.72;;;21.60;50.80;;;;;;5039853;28;45703;-68
2022/01/02 12:18:12;;;;;;;5.15;2.42;;;21.50;50.70;;;;;;5040434;28;44536;-68
2022/01/02 12:21:02;;;;;;;4.95;2.55;;;21.60;50.70;;;;;;5070613;28;43549;-68
2022/01/02 12:23:35;;;;;;;3.80;2.70;;;21.60;50.70;;;;;;5039768;28;43623;-68
2022/01/02 12:26:09;;;;;;;5.47;3.00;;;21.50;50.70;;;;;;5024677;28;44055;-68
2022/01/02 12:29:07;;;;;;;5.35;2.47;;;21.50;50.70;;;;;;5040395;28;43422;-69
2022/01/02 12:31:41;;;;;;;5.95;3.15;;;21.50;50.60;;;;;;5037847;28;44079;-68
2022/01/02 12:34:20;;;;;;;5.30;3.03;;;21.60;50.70;;;;;;5040759;28;43542;-68
2022/01/02 12:36:55;;;;;;;5.35;2.42;;;21.60;50.70;;;;;;5072667;27;44772;-67
2022/01/02 12:39:34;;;;;;;5.57;2.60;;;21.50;50.60;;;;;;5039863;28;43435;-67
2022/01/02 12:42:08;;;;;;;3.70;2.45;;;21.60;50.60;;;;;;5036125;28;43416;-67
2022/01/02 12:44:37;;;;;;;7.95;2.75;;;21.60;50.60;;;;;;5024159;28;43668;-66
2022/01/02 12:47:06;;;;;;;4.40;2.15;;;21.60;50.60;;;;;;5041275;28;45326;-68
2022/01/02 12:49:36;;;;;;;4.90;2.88;;;21.60;50.60;;;;;;5074541;27;43376;-68
2022/01/02 12:52:13;;;;;;;5.47;2.60;;;21.60;50.50;;;;;;5073715;27;43718;-67
2022/01/02 12:54:54;;;;;;;4.45;2.55;;;21.60;50.60;;;;;;5072845;27;43578;-67
2022/01/02 12:57:24;;;;;;;6.35;2.60;;;21.50;50.40;;;;;;5040552;28;44154;-67
2022/01/02 12:59:56;;;;;;;;;;;21.50;50.40;;;;;;5040426;28;43435;-68
2022/01/02 13:02:25;;;;;;;3.80;2.42;;;21.50;50.40;;;;;;5073610;27;43637;-69
2022/01/02 13:04:56;;;;;;;5.40;2.60;;;21.50;50.40;;;;;;5046460;28;43714;-68
2022/01/02 13:07:27;;;;;;;4.75;2.38;;;21.60;50.40;;;;;;5076907;27;44205;-69
2022/01/02 13:10:00;;;;;;;6.53;2.60;;;21.60;50.30;;;;;;5070476;27;43423;-68
2022/01/02 13:12:32;;;;;;;4.68;2.30;;;21.60;50.20;;;;;;5041137;28;43499;-69